Time;durP1;ratioP1;P1;durP2;ratioP2;P2;SDS_P1;SDS_P2;PMS_P1;PMS_P2;Temp;Humidity;BMP_temperature;BMP_pressure;BME280_temperature;BME280_humidity;BME280_pressure;Samples;Min_cycle;Max_cycle;Signal;HPM_P1;HPM_P2
2020/12/05 00:00:31;;;;;;;20.47;8.77;;;4.90;1.00;;;;;;5074744;28;20193;-74
2020/12/05 00:02:57;;;;;;;17.33;7.30;;;4.80;1.00;;;;;;5090144;28;20614;-73
2020/12/05 00:05:22;;;;;;;15.63;7.80;;;4.80;1.00;;;;;;5074903;28;20155;-73
2020/12/05 00:07:48;;;;;;;19.87;8.10;;;4.90;1.00;;;;;;5074636;28;20163;-73
2020/12/05 00:10:16;;;;;;;21.30;8.90;;;4.80;1.00;;;;;;5074597;28;20159;-73
2020/12/05 00:12:41;;;;;;;19.40;9.13;;;6.30;1.00;;;;;;5075127;28;20668;-73
2020/12/05 00:15:07;;;;;;;16.20;7.60;;;4.80;1.00;;;;;;5082718;28;20186;-73
2020/12/05 00:17:33;;;;;;;18.10;7.63;;;4.80;1.00;;;;;;5079945;28;20179;-73
2020/12/05 00:19:59;;;;;;;19.57;8.13;;;4.80;1.00;;;;;;5074428;28;20191;-74
2020/12/05 00:22:25;;;;;;;16.90;8.75;;;4.70;1.00;;;;;;5074356;28;20156;-73
2020/12/05 00:24:51;;;;;;;16.77;7.90;;;4.80;1.00;;;;;;5076255;28;20197;-73
2020/12/05 00:27:21;;;;;;;19.70;8.67;;;4.80;1.00;;;;;;5075505;28;20197;-75
2020/12/05 00:29:47;;;;;;;17.83;8.20;;;4.70;1.00;;;;;;5074397;28;20661;-75
2020/12/05 00:32:14;;;;;;;17.67;8.85;;;4.70;1.00;;;;;;5086816;28;20209;-75
2020/12/05 00:34:40;;;;;;;23.67;8.98;;;4.70;1.00;;;;;;5083019;28;20240;-75
2020/12/05 00:37:09;;;;;;;17.27;7.70;;;4.80;1.00;;;;;;5074700;28;20216;-75
2020/12/05 00:39:57;;;;;;;12.77;7.22;;;4.80;1.00;;;;;;5075099;28;20249;-74
2020/12/05 00:42:34;;;;;;;18.33;7.85;;;4.80;1.00;;;;;;5074586;28;20195;-75
2020/12/05 00:45:45;;;;;;;18.65;8.20;;;4.90;1.00;;;;;;5074248;28;20163;-74
2020/12/05 00:48:45;;;;;;;18.45;7.68;;;4.80;1.00;;;;;;5074273;28;20212;-74
2020/12/05 00:51:12;;;;;;;18.90;8.50;;;4.80;1.00;;;;;;5075584;28;20167;-75
2020/12/05 00:53:39;;;;;;;18.58;8.40;;;4.70;1.00;;;;;;5084597;28;20171;-75
2020/12/05 00:56:08;;;;;;;27.65;8.35;;;4.70;1.00;;;;;;5074502;28;20171;-73
2020/12/05 01:01:58;;;;;;;18.65;8.65;;;4.70;1.00;;;;;;5074101;28;20201;-75
2020/12/05 01:04:23;;;;;;;19.33;8.15;;;4.60;1.00;;;;;;5074150;28;20243;-75
2020/12/05 01:06:51;;;;;;;15.40;7.83;;;4.60;1.00;;;;;;5073947;28;20225;-75
2020/12/05 01:09:57;;;;;;;25.08;8.20;;;4.70;1.00;;;;;;5073916;28;20155;-75
2020/12/05 01:12:24;;;;;;;14.85;6.90;;;4.60;1.00;;;;;;5078489;28;20166;-73
2020/12/05 01:14:50;;;;;;;16.10;7.47;;;4.60;1.00;;;;;;5092989;28;20151;-73
2020/12/05 01:17:16;;;;;;;15.67;7.30;;;4.50;1.00;;;;;;5073631;28;20262;-74
2020/12/05 01:19:42;;;;;;;15.80;7.70;;;4.50;1.00;;;;;;5073389;28;20222;-73
2020/12/05 01:22:07;;;;;;;21.23;8.25;;;4.50;1.00;;;;;;5082996;28;20170;-73
2020/12/05 01:24:34;;;;;;;17.40;7.73;;;4.50;1.00;;;;;;5073684;28;20304;-73
2020/12/05 01:26:59;;;;;;;26.42;8.88;;;4.40;1.00;;;;;;5077401;28;20188;-73
2020/12/05 01:29:25;;;;;;;23.67;8.77;;;4.40;1.00;;;;;;5073658;28;20645;-73
2020/12/05 01:31:50;;;;;;;16.40;7.53;;;4.30;1.00;;;;;;5073550;28;20159;-73
2020/12/05 01:34:21;;;;;;;16.20;7.60;;;4.30;1.00;;;;;;5091204;28;20201;-73
2020/12/05 01:36:47;;;;;;;19.33;9.02;;;4.20;1.00;;;;;;5097607;28;20203;-73
2020/12/05 01:39:13;;;;;;;14.90;7.57;;;;;;;;;;5097885;28;20174;-73
2020/12/05 01:41:39;;;;;;;19.45;7.78;;;4.10;1.00;;;;;;5084810;28;20186;-74
2020/12/05 01:44:05;;;;;;;22.92;8.52;;;4.10;1.00;;;;;;5077928;28;20195;-75
2020/12/05 01:46:38;;;;;;;14.50;6.90;;;4.10;1.00;;;;;;5077808;28;20191;-75
2020/12/05 01:49:14;;;;;;;17.10;8.18;;;4.00;1.00;;;;;;5079996;28;20908;-75
2020/12/05 01:51:41;;;;;;;21.27;8.80;;;4.00;1.00;;;;;;5098037;28;20170;-75
2020/12/05 01:54:07;;;;;;;40.05;7.60;;;4.00;1.00;;;;;;5079121;28;20179;-75
2020/12/05 01:56:33;;;;;;;14.23;6.20;;;4.00;1.00;;;;;;5077250;28;20163;-75
2020/12/05 01:59:05;;;;;;;16.98;7.75;;;4.00;1.00;;;;;;5093446;28;20564;-73
2020/12/05 02:01:33;;;;;;;17.58;8.13;;;4.00;1.00;;;;;;5085793;28;20516;-73
2020/12/05 02:04:01;;;;;;;12.70;6.40;;;3.90;1.00;;;;;;5078940;28;20629;-73
2020/12/05 02:06:57;;;;;;;16.08;8.80;;;3.90;1.00;;;;;;5084699;28;20175;-73
2020/12/05 02:09:31;;;;;;;16.33;7.03;;;3.80;1.00;;;;;;5089510;28;20167;-73
2020/12/05 02:12:32;;;;;;;16.38;7.10;;;3.80;1.00;;;;;;5097374;28;20178;-75
2020/12/05 02:15:25;;;;;;;18.58;6.85;;;3.80;1.00;;;;;;5095705;28;20174;-76
2020/12/05 02:18:21;;;;;;;15.82;6.65;;;3.70;1.00;;;;;;5085549;28;20174;-75
2020/12/05 02:20:59;;;;;;;16.40;6.88;;;3.60;1.00;;;;;;5094020;28;20612;-75
2020/12/05 02:23:34;;;;;;;11.38;6.32;;;3.50;1.00;;;;;;5094418;28;20185;-75
2020/12/05 02:26:05;;;;;;;12.52;6.90;;;3.50;1.00;;;;;;5076863;28;20178;-75
2020/12/05 02:28:46;;;;;;;15.38;7.03;;;3.50;1.00;;;;;;5096756;28;20171;-75
2020/12/05 02:31:12;;;;;;;13.90;6.75;;;3.50;1.00;;;;;;5079057;28;20167;-75
2020/12/05 02:33:39;;;;;;;19.83;6.95;;;3.30;1.00;;;;;;5076949;28;20184;-75
2020/12/05 02:36:21;;;;;;;17.20;7.15;;;3.30;1.00;;;;;;5076815;28;20501;-75
2020/12/05 02:39:03;;;;;;;15.82;5.93;;;3.30;1.00;;;;;;5076391;28;20175;-73
2020/12/05 02:41:29;;;;;;;13.13;5.68;;;3.30;1.00;;;;;;5076165;28;20190;-73
2020/12/05 02:43:54;;;;;;;13.95;6.20;;;3.40;1.00;;;;;;5077726;28;20168;-75
2020/12/05 02:46:21;;;;;;;16.23;6.97;;;3.40;1.00;;;;;;5088831;28;20622;-75
2020/12/05 02:48:47;;;;;;;17.67;7.00;;;3.30;1.00;;;;;;5081095;28;20189;-75
2020/12/05 02:51:16;;;;;;;14.50;6.37;;;3.30;1.00;;;;;;5082664;28;20190;-75
2020/12/05 02:53:41;;;;;;;11.43;5.85;;;3.30;1.00;;;;;;5096857;28;20438;-75
2020/12/05 02:56:21;;;;;;;8.40;5.83;;;3.30;1.00;;;;;;5094625;28;20183;-75
2020/12/05 02:58:47;;;;;;;12.93;6.10;;;3.30;1.00;;;;;;5077575;28;20262;-73
2020/12/05 03:01:15;;;;;;;15.40;7.10;;;3.30;1.00;;;;;;5075916;28;20277;-73
2020/12/05 03:03:46;;;;;;;16.38;6.22;;;3.30;1.00;;;;;;5076066;28;20676;-73
2020/12/05 03:06:21;;;;;;;18.40;6.57;;;3.30;1.00;;;;;;5075771;28;20167;-73
2020/12/05 03:08:58;;;;;;;10.05;5.50;;;3.30;1.00;;;;;;5075941;28;20159;-73
2020/12/05 03:11:34;;;;;;;13.25;6.72;;;3.30;1.00;;;;;;5082210;28;20612;-73
2020/12/05 03:13:59;;;;;;;13.43;6.55;;;3.20;1.00;;;;;;5090071;28;20166;-75
2020/12/05 03:16:25;;;;;;;12.10;5.70;;;3.20;1.00;;;;;;5094791;28;20176;-75
2020/12/05 03:19:09;;;;;;;14.93;6.37;;;3.20;1.00;;;;;;5089100;28;20254;-75
2020/12/05 03:21:35;;;;;;;12.68;6.45;;;3.00;1.00;;;;;;5087219;28;21671;-75
2020/12/05 03:24:27;;;;;;;15.47;6.97;;;3.00;1.00;;;;;;5091212;28;20167;-76
2020/12/05 03:27:21;;;;;;;27.75;6.05;;;3.00;1.00;;;;;;5075527;28;20220;-75
2020/12/05 03:29:50;;;;;;;13.93;5.80;;;3.00;1.00;;;;;;5075913;28;20168;-73
2020/12/05 03:32:30;;;;;;;10.10;5.55;;;3.00;1.00;;;;;;5076416;28;20182;-73
2020/12/05 03:34:58;;;;;;;13.40;5.63;;;3.00;1.00;;;;;;5075327;28;20178;-73
2020/12/05 03:37:25;;;;;;;12.52;6.95;;;3.00;1.00;;;;;;5075420;28;20163;-73
2020/12/05 03:39:52;;;;;;;17.02;7.10;;;3.00;1.00;;;;;;5075112;28;20224;-73
2020/12/05 03:42:18;;;;;;;15.77;6.20;;;2.90;1.00;;;;;;5075101;28;20194;-73
2020/12/05 03:44:44;;;;;;;22.63;6.90;;;2.90;1.00;;;;;;5075636;28;20151;-74
2020/12/05 03:47:16;;;;;;;16.20;6.70;;;3.00;1.00;;;;;;5074718;28;20421;-74
2020/12/05 03:49:42;;;;;;;13.82;6.32;;;3.00;1.00;;;;;;5078580;28;20409;-73
2020/12/05 03:52:08;;;;;;;12.90;5.33;;;3.00;1.00;;;;;;5075163;28;20179;-73
2020/12/05 03:54:40;;;;;;;18.90;6.85;;;3.00;1.00;;;;;;5079720;28;20488;-73
2020/12/05 03:57:10;;;;;;;14.05;6.88;;;3.00;1.00;;;;;;5075101;28;20182;-73
2020/12/05 03:59:57;;;;;;;15.00;6.50;;;3.00;1.00;;;;;;5074623;28;20179;-75
2020/12/05 04:02:23;;;;;;;17.02;6.50;;;3.00;1.00;;;;;;5075118;28;20190;-75
2020/12/05 04:04:57;;;;;;;13.93;5.33;;;3.00;1.00;;;;;;5075014;28;20186;-75
2020/12/05 04:07:28;;;;;;;8.82;5.50;;;3.10;1.00;;;;;;5074873;28;20636;-75
2020/12/05 04:09:58;;;;;;;23.85;8.05;;;3.10;1.00;;;;;;5079211;28;20663;-75
2020/12/05 04:12:40;;;;;;;10.85;6.05;;;3.10;1.00;;;;;;5075015;28;20679;-75
2020/12/05 04:15:05;;;;;;;15.65;7.10;;;3.10;1.00;;;;;;5090310;28;20225;-75
2020/12/05 04:17:46;;;;;;;17.43;6.17;;;3.10;1.00;;;;;;5093696;28;20657;-75
2020/12/05 04:20:33;;;;;;;13.43;6.10;;;3.10;1.00;;;;;;5095083;28;20568;-75
2020/12/05 04:23:04;;;;;;;14.65;7.13;;;3.10;1.00;;;;;;5090434;28;20171;-76
2020/12/05 04:25:57;;;;;;;14.18;5.97;;;3.00;1.00;;;;;;5074409;28;20178;-75
2020/12/05 04:28:45;;;;;;;18.55;6.00;;;3.10;1.00;;;;;;5079142;28;20173;-75
2020/12/05 04:31:33;;;;;;;18.73;6.75;;;3.00;1.00;;;;;;5074313;28;20175;-75
2020/12/05 04:33:59;;;;;;;16.45;6.95;;;3.00;1.00;;;;;;5074173;28;20175;-75
2020/12/05 04:36:45;;;;;;;14.63;6.47;;;3.00;1.00;;;;;;5074877;28;20170;-75
2020/12/05 04:39:11;;;;;;;14.13;6.15;;;3.00;1.00;;;;;;5077551;28;20175;-75
2020/12/05 04:41:43;;;;;;;11.83;6.33;;;3.00;1.00;;;;;;5074378;28;20194;-75
2020/12/05 04:44:45;;;;;;;17.48;7.18;;;3.00;1.00;;;;;;5080459;28;20414;-75
2020/12/05 04:47:13;;;;;;;18.80;7.63;;;3.00;1.00;;;;;;5090119;28;20519;-75
2020/12/05 04:49:40;;;;;;;14.77;6.75;;;3.00;1.00;;;;;;5092582;28;20602;-75
2020/12/05 04:52:48;;;;;;;14.90;5.80;;;3.00;1.00;;;;;;5074127;28;20152;-75
2020/12/05 04:55:30;;;;;;;14.40;6.78;;;3.00;1.00;;;;;;5072792;28;20190;-75
2020/12/05 04:57:59;;;;;;;22.13;7.03;;;3.10;1.00;;;;;;5078943;28;20212;-75
2020/12/05 05:00:53;;;;;;;15.82;6.75;;;3.10;1.00;;;;;;5079066;28;20195;-75
2020/12/05 05:03:24;;;;;;;15.13;5.97;;;3.20;1.00;;;;;;5078683;28;20170;-75
2020/12/05 05:06:04;;;;;;;17.00;6.95;;;3.20;1.00;;;;;;5078534;28;20155;-75
2020/12/05 05:08:29;;;;;;;18.98;7.78;;;3.20;1.00;;;;;;5074107;28;20594;-75
2020/12/05 05:11:09;;;;;;;12.73;6.43;;;3.20;1.00;;;;;;5073782;28;20216;-75
2020/12/05 05:13:54;;;;;;;15.32;7.28;;;3.10;1.00;;;;;;5082979;28;20237;-75
2020/12/05 05:16:24;;;;;;;19.90;6.50;;;3.20;1.00;;;;;;5093981;28;20168;-73
2020/12/05 05:18:50;;;;;;;15.65;7.82;;;3.20;1.00;;;;;;5075936;28;20236;-74
2020/12/05 05:21:40;;;;;;;20.95;7.43;;;3.20;1.00;;;;;;5073654;28;20223;-73
2020/12/05 05:24:17;;;;;;;15.80;7.05;;;3.20;1.00;;;;;;5072219;28;20237;-74
2020/12/05 05:27:02;;;;;;;17.45;7.25;;;3.20;1.00;;;;;;5073267;28;20243;-73
2020/12/05 05:32:52;;;;;;;11.18;5.68;;;3.30;1.00;;;;;;5073927;28;20228;-75
2020/12/05 05:35:18;;;;;;;17.30;8.35;;;3.30;1.00;;;;;;5073531;28;20630;-75
2020/12/05 05:37:46;;;;;;;17.43;6.87;;;3.30;1.00;;;;;;5073182;28;20222;-75
2020/12/05 05:40:25;;;;;;;16.17;7.05;;;3.30;1.00;;;;;;5091256;28;20641;-75
2020/12/05 05:43:15;;;;;;;11.25;6.32;;;3.30;1.00;;;;;;5093905;28;20166;-75
2020/12/05 05:45:52;;;;;;;14.95;6.82;;;3.40;1.00;;;;;;5094118;28;20686;-74
2020/12/05 05:48:22;;;;;;;16.00;7.05;;;3.30;1.00;;;;;;5091735;28;20605;-73
2020/12/05 05:50:48;;;;;;;15.63;7.38;;;3.30;1.00;;;;;;5075944;28;20159;-73
2020/12/05 05:53:21;;;;;;;16.30;6.87;;;3.40;1.00;;;;;;5073159;28;20625;-74
2020/12/05 05:55:49;;;;;;;17.60;7.97;;;3.40;1.00;;;;;;5092950;28;20171;-74
2020/12/05 05:58:21;;;;;;;25.42;8.98;;;3.40;1.00;;;;;;5093498;28;20176;-74
2020/12/05 06:00:51;;;;;;;19.58;9.40;;;3.40;1.00;;;;;;5085246;28;20703;-74
2020/12/05 06:03:26;;;;;;;22.25;8.15;;;3.40;1.00;;;;;;5092727;28;20179;-74
2020/12/05 06:05:58;;;;;;;21.27;8.40;;;3.50;1.00;;;;;;5079391;28;20194;-74
2020/12/05 06:08:27;;;;;;;23.67;8.45;;;3.50;1.00;;;;;;5072997;28;20254;-74
2020/12/05 06:10:55;;;;;;;20.55;9.25;;;3.50;1.00;;;;;;5073027;28;20175;-74
2020/12/05 06:13:30;;;;;;;21.45;7.75;;;5.30;1.00;;;;;;5072862;28;20641;-74
2020/12/05 06:15:57;;;;;;;19.25;8.15;;;3.60;1.00;;;;;;5073330;28;20265;-73
2020/12/05 06:18:23;;;;;;;16.27;7.40;;;3.60;1.00;;;;;;5073121;28;20166;-74
2020/12/05 06:20:50;;;;;;;19.90;7.70;;;3.60;1.00;;;;;;5081977;28;20198;-74
2020/12/05 06:23:46;;;;;;;20.35;8.40;;;3.60;1.00;;;;;;5083243;28;20498;-73
2020/12/05 06:26:18;;;;;;;14.05;7.72;;;3.60;1.00;;;;;;5076828;28;20151;-74
2020/12/05 06:28:46;;;;;;;19.45;7.38;;;3.60;1.00;;;;;;5076546;28;20521;-74
2020/12/05 06:31:43;;;;;;;17.92;7.82;;;3.60;1.00;;;;;;5076749;28;20187;-76
2020/12/05 06:34:32;;;;;;;19.50;7.55;;;3.70;1.00;;;;;;5091604;28;20653;-77
2020/12/05 06:40:20;;;;;;;14.52;6.85;;;3.70;1.00;;;;;;5076262;28;20325;-78
2020/12/05 06:43:39;;;;;;;18.88;8.13;;;3.70;1.00;;;;;;5075204;28;20224;-78
2020/12/05 06:46:45;;;;;;;16.00;6.45;;;3.70;1.00;;;;;;5092114;28;20232;-78
2020/12/05 06:49:39;;;;;;;17.90;8.13;;;3.70;1.00;;;;;;5089090;28;20202;-78
2020/12/05 06:52:57;;;;;;;21.75;6.53;;;3.70;1.00;;;;;;5086528;28;20169;-78
2020/12/05 06:58:58;;;;;;;14.95;6.50;;;;;;;;;;5076315;28;20175;-78
2020/12/05 07:14:52;;;;;;;14.32;6.63;;;3.80;1.00;;;;;;5081401;28;20223;-78
2020/12/05 07:20:39;;;;;;;21.88;7.75;;;3.80;1.00;;;;;;5095649;28;20209;-78
2020/12/05 07:23:57;;;;;;;19.70;8.07;;;3.70;1.00;;;;;;5095465;28;20162;-78
2020/12/05 07:26:51;;;;;;;19.88;8.00;;;3.80;1.00;;;;;;5089896;28;20168;-78
2020/12/05 07:30:03;;;;;;;18.27;7.25;;;3.90;1.00;;;;;;5075800;28;20164;-79
2020/12/05 07:42:41;;;;;;;14.38;7.50;;;3.90;1.00;;;;;;5089518;28;20201;-78
2020/12/05 07:45:13;;;;;;;20.52;7.90;;;3.90;1.00;;;;;;5085589;28;20270;-78
2020/12/05 07:47:40;;;;;;;23.25;7.88;;;3.90;1.00;;;;;;5075126;28;20159;-77
2020/12/05 07:50:10;;;;;;;21.45;8.63;;;3.90;1.00;;;;;;5087562;28;20174;-77
2020/12/05 07:56:30;;;;;;;42.00;16.00;;;4.20;1.00;;;;;;5076532;28;20665;-76
2020/12/05 08:09:05;;;;;;;32.85;13.30;;;5.30;1.00;;;;;;5012912;28;20234;-78
2020/12/05 08:11:46;;;;;;;29.83;12.48;;;5.30;1.00;;;;;;5012242;28;20633;-79
2020/12/05 08:14:34;;;;;;;28.10;11.68;;;5.20;1.00;;;;;;5008463;28;20178;-78
2020/12/05 08:17:51;;;;;;;30.05;10.82;;;5.10;1.00;;;;;;4993458;28;20838;-79
2020/12/05 08:20:41;;;;;;;24.58;9.65;;;5.10;1.00;;;;;;4993232;28;20197;-78
2020/12/05 08:23:57;;;;;;;28.00;10.85;;;5.00;1.00;;;;;;5012004;28;20208;-84
2020/12/05 08:26:23;;;;;;;29.05;10.30;;;5.10;1.00;;;;;;4993969;28;20172;-74
2020/12/05 08:28:49;;;;;;;27.47;10.37;;;5.00;1.00;;;;;;5011526;28;20185;-75
2020/12/05 08:31:28;;;;;;;27.30;11.33;;;5.00;1.00;;;;;;5031206;28;20419;-74
2020/12/05 08:33:55;;;;;;;115.90;40.28;;;5.00;1.00;;;;;;5019475;28;20420;-74
2020/12/05 08:36:45;;;;;;;55.78;19.83;;;5.00;1.00;;;;;;5068794;28;20531;-78
2020/12/05 08:39:16;;;;;;;75.43;29.05;;;5.10;1.00;;;;;;5085790;28;20174;-74
2020/12/05 08:41:46;;;;;;;52.85;20.35;;;5.10;1.00;;;;;;5094308;28;20186;-74
2020/12/05 08:44:18;;;;;;;39.30;16.67;;;5.20;1.00;;;;;;5091619;28;20181;-74
2020/12/05 08:54:06;;;;;;;36.28;13.30;;;5.40;1.00;;;;;;5084730;28;20182;-76
2020/12/05 08:56:34;;;;;;;25.45;10.30;;;5.40;1.00;;;;;;5092140;28;20174;-75
2020/12/05 08:59:39;;;;;;;22.52;9.95;;;5.40;1.00;;;;;;5094143;28;20162;-75
2020/12/05 09:02:34;;;;;;;24.45;10.93;;;5.40;1.00;;;;;;5094558;28;20480;-75
2020/12/05 09:05:10;;;;;;;25.25;10.15;;;5.50;1.00;;;;;;5078431;28;20201;-76
2020/12/05 09:07:52;;;;;;;24.35;9.32;;;5.50;1.00;;;;;;5093892;28;20643;-75
2020/12/05 09:10:39;;;;;;;22.52;10.65;;;5.50;1.00;;;;;;5094453;28;20186;-76
2020/12/05 09:13:43;;;;;;;25.08;10.05;;;5.50;1.00;;;;;;5084314;28;20175;-76
2020/12/05 09:16:16;;;;;;;35.53;10.27;;;5.60;1.00;;;;;;5077629;28;20173;-75
2020/12/05 09:18:47;;;;;;;20.80;10.40;;;5.60;1.00;;;;;;5073741;28;20915;-75
2020/12/05 09:21:22;;;;;;;23.13;9.85;;;5.60;1.00;;;;;;5089742;28;20649;-75
2020/12/05 09:27:10;;;;;;;19.27;8.73;;;5.70;1.00;;;;;;5073478;28;20745;-75
2020/12/05 09:29:35;;;;;;;22.07;9.87;;;5.80;1.00;;;;;;5073942;28;20559;-76
2020/12/05 09:32:34;;;;;;;26.90;9.33;;;5.90;1.00;;;;;;5077981;28;20542;-75
2020/12/05 09:35:01;;;;;;;24.50;9.30;;;5.90;1.00;;;;;;5072423;28;20541;-75
2020/12/05 09:37:41;;;;;;;24.37;9.40;;;5.90;1.00;;;;;;5079729;28;20497;-75
2020/12/05 09:40:34;;;;;;;22.70;9.50;;;6.00;1.00;;;;;;5081526;28;20540;-75
2020/12/05 09:43:51;;;;;;;22.70;10.00;;;6.10;1.00;;;;;;5093853;28;20445;-75
2020/12/05 09:46:17;;;;;;;24.27;10.15;;;6.10;1.00;;;;;;5077558;28;20416;-75
2020/12/05 09:48:43;;;;;;;24.00;10.00;;;6.10;1.00;;;;;;5075062;28;20166;-78
2020/12/05 09:51:16;;;;;;;23.27;9.70;;;6.10;1.00;;;;;;5075703;28;20189;-75
2020/12/05 09:53:41;;;;;;;26.17;9.40;;;6.20;1.00;;;;;;5073373;28;20611;-75
2020/12/05 09:56:22;;;;;;;49.57;16.83;;;6.20;1.00;;;;;;5084657;28;20428;-76
2020/12/05 09:58:47;;;;;;;22.13;10.93;;;6.20;1.00;;;;;;5080825;28;20697;-75
2020/12/05 10:01:16;;;;;;;23.90;10.33;;;6.20;1.00;;;;;;5088390;28;20540;-75
2020/12/05 10:03:46;;;;;;;121.33;39.63;;;6.20;1.00;;;;;;5077427;28;20583;-75
2020/12/05 10:06:11;;;;;;;30.60;12.33;;;6.10;1.00;;;;;;5077063;28;20876;-74
2020/12/05 10:08:40;;;;;;;26.93;11.80;;;6.20;1.00;;;;;;5077190;28;20426;-74
2020/12/05 10:11:05;;;;;;;297.90;94.17;;;6.20;1.00;;;;;;5084872;28;20641;-74
2020/12/05 10:13:40;;;;;;;168.30;54.37;;;6.20;1.00;;;;;;5091153;28;20495;-74
2020/12/05 10:16:34;;;;;;;56.20;23.50;;;6.30;1.00;;;;;;5097387;28;20180;-75
2020/12/05 10:19:10;;;;;;;60.47;24.37;;;6.30;1.00;;;;;;5077244;28;20431;-74
2020/12/05 10:21:50;;;;;;;39.93;16.10;;;6.40;1.00;;;;;;5083593;28;20787;-75
2020/12/05 10:24:17;;;;;;;64.47;21.57;;;6.40;1.00;;;;;;5099016;28;20395;-74
2020/12/05 10:26:50;;;;;;;28.50;11.70;;;6.40;1.00;;;;;;5096933;28;20491;-74
2020/12/05 10:29:16;;;;;;;166.70;53.23;;;6.50;1.00;;;;;;5097064;28;20385;-74
2020/12/05 10:31:53;;;;;;;60.17;22.30;;;6.60;1.00;;;;;;5082801;28;21112;-75
2020/12/05 10:34:28;;;;;;;298.13;99.70;;;6.70;1.00;;;;;;5097079;28;20392;-75
2020/12/05 10:36:54;;;;;;;140.63;48.00;;;6.70;1.00;;;;;;5097455;28;20541;-75
2020/12/05 10:39:28;;;;;;;54.23;20.90;;;6.90;1.00;;;;;;5097032;28;20424;-75
2020/12/05 10:41:54;;;;;;;51.40;19.23;;;7.00;1.00;;;;;;5076613;28;20957;-75
2020/12/05 10:44:45;;;;;;;18.73;8.13;;;7.10;1.00;;;;;;5076540;28;20394;-75
2020/12/05 10:47:11;;;;;;;16.67;8.03;;;7.30;1.00;;;;;;5085136;28;20177;-75
2020/12/05 10:49:37;;;;;;;16.47;7.57;;;7.30;1.00;;;;;;5096106;28;20397;-75
2020/12/05 10:52:02;;;;;;;17.27;6.90;;;7.40;1.00;;;;;;5096624;28;20161;-75
2020/12/05 10:54:28;;;;;;;17.90;7.33;;;7.40;1.00;;;;;;5096605;28;20158;-75
2020/12/05 10:56:58;;;;;;;13.77;6.60;;;7.60;1.00;;;;;;5077774;28;20170;-75
2020/12/05 10:59:28;;;;;;;51.73;21.73;;;7.80;1.00;;;;;;5075972;28;20167;-75
2020/12/05 11:02:45;;;;;;;18.27;8.93;;;7.80;1.00;;;;;;5075177;28;20805;-75
2020/12/05 11:05:16;;;;;;;127.80;49.37;;;7.80;1.00;;;;;;5077153;28;20386;-76
2020/12/05 11:07:42;;;;;;;43.53;18.53;;;7.80;1.00;;;;;;5087562;28;20770;-76
2020/12/05 11:10:08;;;;;;;10.60;5.80;;;7.90;1.00;;;;;;5076331;28;20394;-76
2020/12/05 11:12:34;;;;;;;79.17;31.20;;;7.90;1.00;;;;;;5077308;28;20699;-76
2020/12/05 11:15:16;;;;;;;23.83;10.13;;;7.90;1.00;;;;;;5096113;28;20396;-76
2020/12/05 11:17:52;;;;;;;8.70;5.57;;;8.00;1.00;;;;;;5096211;28;20670;-75
2020/12/05 11:20:22;;;;;;;23.60;11.33;;;8.20;1.00;;;;;;5096189;28;20436;-75
2020/12/05 11:22:58;;;;;;;58.47;26.33;;;8.30;1.00;;;;;;5092213;28;20448;-75
2020/12/05 11:25:28;;;;;;;20.57;10.60;;;8.40;1.00;;;;;;5086734;28;20970;-75
2020/12/05 11:27:53;;;;;;;36.30;13.03;;;8.40;1.00;;;;;;5095890;28;20381;-75
2020/12/05 11:30:22;;;;;;;35.00;13.47;;;8.50;1.00;;;;;;5095478;28;20738;-75
2020/12/05 11:32:47;;;;;;;26.50;11.30;;;8.50;1.00;;;;;;5095328;28;20787;-74
2020/12/05 11:35:13;;;;;;;11.30;6.17;;;8.50;1.00;;;;;;5081916;28;20431;-75
2020/12/05 11:37:46;;;;;;;8.77;4.87;;;8.60;1.00;;;;;;5084746;28;20171;-75
2020/12/05 11:40:28;;;;;;;38.07;17.10;;;8.50;1.00;;;;;;5075678;28;20199;-75
2020/12/05 11:42:54;;;;;;;13.73;7.03;;;8.60;1.00;;;;;;5075328;28;20435;-75
2020/12/05 11:45:28;;;;;;;7.10;4.10;;;8.60;1.00;;;;;;5075220;28;20410;-75
2020/12/05 11:47:54;;;;;;;9.60;5.33;;;8.70;1.00;;;;;;5075562;28;20155;-74
2020/12/05 11:50:28;;;;;;;9.97;6.10;;;8.70;1.00;;;;;;5094429;28;20427;-74
2020/12/05 11:52:54;;;;;;;19.40;9.90;;;8.80;1.00;;;;;;5081843;28;20233;-74
2020/12/05 11:55:19;;;;;;;15.20;7.53;;;8.70;1.00;;;;;;5074833;28;20508;-74
2020/12/05 11:57:45;;;;;;;14.63;6.57;;;8.70;1.00;;;;;;5074985;28;20172;-74
2020/12/05 12:00:10;;;;;;;16.03;6.10;;;8.60;1.00;;;;;;5074933;28;20195;-75
2020/12/05 12:02:46;;;;;;;10.70;6.17;;;8.50;1.00;;;;;;5074964;28;20159;-75
2020/12/05 12:05:16;;;;;;;12.67;6.20;;;8.80;1.00;;;;;;5075272;28;20162;-79
2020/12/05 12:07:46;;;;;;;13.40;6.13;;;8.50;1.00;;;;;;5080561;28;20423;-74
2020/12/05 12:10:12;;;;;;;14.80;6.90;;;8.50;1.00;;;;;;5083451;28;20775;-75
2020/12/05 12:12:46;;;;;;;12.03;6.77;;;8.60;1.00;;;;;;5079904;28;20417;-75
2020/12/05 12:15:15;;;;;;;362.77;173.47;;;8.70;1.00;;;;;;5082241;28;20417;-74
2020/12/05 12:17:42;;;;;;;373.83;166.60;;;8.70;1.00;;;;;;5095061;28;20840;-75
2020/12/05 12:20:10;;;;;;;69.70;30.97;;;10.10;1.00;;;;;;5082761;28;21061;-75
2020/12/05 12:22:36;;;;;;;48.23;22.00;;;10.40;1.00;;;;;;5074582;28;20381;-75
2020/12/05 12:25:10;;;;;;;21.07;11.17;;;10.30;1.00;;;;;;5076830;28;20405;-75
2020/12/05 12:27:38;;;;;;;15.77;8.17;;;10.40;1.00;;;;;;5076826;28;20424;-75
2020/12/05 12:30:10;;;;;;;15.27;6.80;;;10.50;1.00;;;;;;5074472;28;20422;-75
2020/12/05 12:32:57;;;;;;;15.17;7.50;;;10.60;1.00;;;;;;5087874;28;20423;-75
2020/12/05 12:35:23;;;;;;;17.60;8.90;;;10.70;1.00;;;;;;5094751;28;20408;-76
2020/12/05 12:37:49;;;;;;;14.23;7.83;;;11.20;1.00;;;;;;5094653;28;20404;-76
2020/12/05 12:40:22;;;;;;;10.67;6.10;;;11.20;1.00;;;;;;5091491;28;20440;-75
2020/12/05 12:42:58;;;;;;;9.83;6.40;;;11.20;1.00;;;;;;5074153;28;20183;-76
2020/12/05 12:45:30;;;;;;;14.50;5.90;;;11.30;1.00;;;;;;5074290;28;20875;-75
2020/12/05 12:50:28;;;;;;;11.67;6.80;;;11.30;1.00;;;;;;5094633;28;20412;-75
2020/12/05 12:52:58;;;;;;;26.57;12.97;;;11.30;1.00;;;;;;5094304;28;20484;-75
2020/12/05 12:55:28;;;;;;;22.93;11.10;;;11.00;1.00;;;;;;5093455;28;20389;-75
2020/12/05 12:57:58;;;;;;;12.67;7.40;;;11.10;1.00;;;;;;5094306;28;20981;-74
2020/12/05 13:00:40;;;;;;;13.67;7.10;;;12.30;1.00;;;;;;5079988;28;20502;-75
2020/12/05 13:03:27;;;;;;;12.60;6.80;;;11.10;1.00;;;;;;5073993;28;20382;-74
2020/12/05 13:05:53;;;;;;;14.83;8.07;;;11.10;1.00;;;;;;5073752;28;20438;-75
2020/12/05 13:08:19;;;;;;;12.80;7.60;;;11.20;1.00;;;;;;5074236;28;20413;-75
2020/12/05 13:10:46;;;;;;;15.43;6.93;;;12.30;1.00;;;;;;5073880;28;20542;-75
2020/12/05 13:13:16;;;;;;;13.43;6.90;;;10.90;1.00;;;;;;5074791;28;20171;-76
2020/12/05 13:15:42;;;;;;;9.07;5.90;;;10.80;1.00;;;;;;5073929;28;20385;-75
2020/12/05 13:18:16;;;;;;;14.30;7.17;;;10.40;1.00;;;;;;5073828;28;20438;-74
2020/12/05 13:20:52;;;;;;;8.80;5.90;;;10.40;1.00;;;;;;5073808;28;20534;-75
2020/12/05 13:23:39;;;;;;;8.37;5.50;;;10.10;1.00;;;;;;5075400;28;20899;-75
2020/12/05 13:26:17;;;;;;;9.40;5.27;;;10.10;1.00;;;;;;5073483;28;20401;-75
2020/12/05 13:29:27;;;;;;;9.23;5.80;;;9.90;1.00;;;;;;5089722;28;20430;-76
2020/12/05 13:32:27;;;;;;;7.83;4.90;;;10.00;1.00;;;;;;5089572;28;20418;-76
2020/12/05 13:34:53;;;;;;;9.27;4.70;;;9.90;1.00;;;;;;5078200;28;20389;-75
2020/12/05 13:37:28;;;;;;;7.30;4.20;;;9.80;1.00;;;;;;5085566;28;20420;-75
2020/12/05 13:39:54;;;;;;;7.40;4.43;;;9.80;1.00;;;;;;5096457;28;20189;-74
2020/12/05 13:42:19;;;;;;;9.40;4.80;;;9.80;1.00;;;;;;5088559;28;20435;-75
2020/12/05 13:44:46;;;;;;;6.97;4.50;;;9.90;1.00;;;;;;5095931;28;20674;-74
2020/12/05 13:47:16;;;;;;;7.97;4.80;;;9.80;1.00;;;;;;5083259;28;20202;-74
2020/12/05 13:49:46;;;;;;;10.40;3.90;;;9.70;1.00;;;;;;5092212;28;20906;-75
2020/12/05 13:52:39;;;;;;;6.90;4.10;;;9.90;1.00;;;;;;5097509;28;20444;-75
2020/12/05 13:55:28;;;;;;;200.40;21.03;;;9.90;1.00;;;;;;5095520;28;20470;-75
2020/12/05 13:57:58;;;;;;;221.00;21.10;;;9.80;1.00;;;;;;5079767;28;20753;-75
2020/12/05 14:00:34;;;;;;;40.73;8.73;;;9.60;1.00;;;;;;5077443;28;20506;-75
2020/12/05 14:03:04;;;;;;;10.90;5.10;;;9.30;1.00;;;;;;5077178;28;20947;-75
2020/12/05 14:05:30;;;;;;;9.13;5.10;;;9.20;1.00;;;;;;5077439;28;20904;-74
2020/12/05 14:07:55;;;;;;;17.33;4.57;;;9.60;1.00;;;;;;5075781;28;20458;-74
2020/12/05 14:10:28;;;;;;;4.50;3.40;;;9.80;1.00;;;;;;5077063;28;20197;-74
2020/12/05 14:13:04;;;;;;;4.03;3.20;;;9.90;1.00;;;;;;5095194;28;20223;-74
2020/12/05 14:15:30;;;;;;;5.30;3.20;;;9.90;1.00;;;;;;5097461;28;20400;-74
2020/12/05 14:17:55;;;;;;;5.23;3.80;;;9.60;1.00;;;;;;5097298;28;20392;-74
2020/12/05 14:20:40;;;;;;;10.13;3.23;;;9.10;1.00;;;;;;5097564;28;20186;-74
2020/12/05 14:23:16;;;;;;;6.17;3.70;;;9.30;1.00;;;;;;5078545;28;20163;-74
2020/12/05 14:25:52;;;;;;;4.00;3.50;;;9.30;1.00;;;;;;5077130;28;20424;-74
2020/12/05 14:28:18;;;;;;;7.30;3.67;;;9.30;1.00;;;;;;5076799;28;20720;-74
2020/12/05 14:30:52;;;;;;;19.23;2.80;;;9.40;1.00;;;;;;5091605;28;20412;-74
2020/12/05 14:33:19;;;;;;;5.80;3.87;;;9.50;1.00;;;;;;5081594;28;20174;-74
2020/12/05 14:35:45;;;;;;;30.97;3.63;;;9.50;1.00;;;;;;5077350;28;20931;-76
2020/12/05 14:38:16;;;;;;;4.60;3.17;;;9.40;1.00;;;;;;5095097;28;20412;-76
2020/12/05 14:40:42;;;;;;;6.40;4.07;;;9.00;1.00;;;;;;5096968;28;20981;-76